Time;durP1;ratioP1;P1;durP2;ratioP2;P2;SDS_P1;SDS_P2;PMS_P1;PMS_P2;Temp;Humidity;BMP_temperature;BMP_pressure;BME280_temperature;BME280_humidity;BME280_pressure;Samples;Min_cycle;Max_cycle;Signal;HPM_P1;HPM_P2
2023/02/13 00:02:04;;;;;;;20.77;7.37;;;;;;;-1.42;57.78;102363.53;125502;1099;104182;-81
2023/02/13 00:04:36;;;;;;;18.90;6.05;;;;;;;-1.43;58.68;102363.36;125489;1099;101791;-84
2023/02/13 00:07:07;;;;;;;20.23;6.77;;;;;;;-1.43;58.25;102353.05;125545;1099;104194;-84
2023/02/13 00:09:38;;;;;;;18.40;6.10;;;;;;;-1.43;57.76;102360.78;125535;1099;104211;-84
2023/02/13 00:12:10;;;;;;;16.53;5.70;;;;;;;-1.43;57.93;102369.45;125450;1099;102057;-83
2023/02/13 00:14:41;;;;;;;14.20;5.20;;;;;;;-1.42;58.12;102354.90;125533;1099;102061;-83
2023/02/13 00:17:12;;;;;;;17.17;5.37;;;;;;;-1.42;57.63;102350.66;125542;1099;101864;-83
2023/02/13 00:19:44;;;;;;;17.53;5.60;;;;;;;-1.39;58.81;102350.09;124934;1099;104261;-83
2023/02/13 00:22:15;;;;;;;14.33;5.40;;;;;;;-1.40;58.04;102346.62;125591;1098;104275;-83
2023/02/13 00:24:47;;;;;;;13.33;5.40;;;;;;;-1.40;58.54;102349.19;125554;1099;104238;-83
2023/02/13 00:27:18;;;;;;;17.83;6.00;;;;;;;-1.39;58.40;102348.42;125480;1098;104252;-82
2023/02/13 00:29:50;;;;;;;15.63;5.40;;;;;;;-1.37;58.50;102344.39;125449;1099;104169;-84
2023/02/13 00:32:21;;;;;;;14.47;4.80;;;;;;;-1.35;58.36;102344.56;125465;1099;104309;-84
2023/02/13 00:34:52;;;;;;;14.60;5.03;;;;;;;-1.32;58.87;102344.91;125485;1099;102265;-82
2023/02/13 00:37:23;;;;;;;17.50;5.27;;;;;;;-1.29;58.61;102347.83;125549;1099;101887;-83
2023/02/13 00:39:56;;;;;;;13.63;5.37;;;;;;;-1.25;58.58;102351.66;124913;1099;101847;-84
2023/02/13 00:42:27;;;;;;;15.90;4.70;;;;;;;-1.21;58.51;102341.87;125652;1099;102041;-85
2023/02/13 00:44:59;;;;;;;15.23;4.80;;;;;;;-1.18;58.89;102344.79;125543;1099;104200;-82
2023/02/13 00:47:30;;;;;;;14.80;4.43;;;;;;;-1.16;58.50;102339.81;124938;1099;102053;-84
2023/02/13 00:50:01;;;;;;;12.47;5.10;;;;;;;-1.15;59.27;102344.23;125561;1099;104239;-84
2023/02/13 00:52:32;;;;;;;12.47;4.20;;;;;;;-1.17;59.08;102336.33;124942;1099;102079;-83
2023/02/13 00:55:04;;;;;;;12.47;4.83;;;;;;;-1.16;59.74;102345.87;125560;1098;101804;-84
2023/02/13 00:57:35;;;;;;;10.87;4.50;;;;;;;-1.12;58.94;102347.15;125550;1099;104178;-85
2023/02/13 01:00:10;;;;;;;11.10;4.03;;;;;;;-1.11;59.73;102352.47;124956;1099;101931;-83
2023/02/13 01:02:41;;;;;;;10.43;3.75;;;;;;;-1.10;59.40;102355.95;125541;1099;104210;-81
2023/02/13 01:05:12;;;;;;;9.20;3.80;;;;;;;-1.09;59.62;102353.55;124930;1099;104197;-82
2023/02/13 01:07:44;;;;;;;11.30;3.93;;;;;;;-1.10;58.95;102351.70;125429;1099;104217;-82
2023/02/13 01:10:17;;;;;;;9.73;4.23;;;;;;;-1.09;59.32;102358.70;124956;1099;104233;-81
2023/02/13 01:12:48;;;;;;;13.60;4.30;;;;;;;-1.09;58.91;102350.97;125520;1099;104185;-82
2023/02/13 01:15:19;;;;;;;14.27;4.80;;;;;;;-1.06;59.71;102350.41;125579;1099;104207;-83
2023/02/13 01:17:52;;;;;;;14.07;4.33;;;;;;;-1.03;59.74;102349.81;125524;1099;104271;-82
2023/02/13 01:20:24;;;;;;;8.33;4.13;;;;;;;-1.01;59.41;102345.74;125392;1099;104083;-84
2023/02/13 01:22:57;;;;;;;13.40;4.40;;;;;;;-1.00;59.23;102334.70;125532;1099;104278;-83
2023/02/13 01:25:28;;;;;;;12.67;4.20;;;;;;;-0.96;59.80;102344.62;125416;1099;101980;-81
2023/02/13 01:28:00;;;;;;;12.13;4.47;;;;;;;-0.95;59.88;102347.36;125470;1099;101874;-83
2023/02/13 01:30:31;;;;;;;13.40;4.70;;;;;;;-0.90;59.52;102342.72;124940;1099;104217;-84
2023/02/13 01:33:02;;;;;;;11.30;4.40;;;;;;;-0.86;59.79;102339.72;125392;1099;104179;-85
2023/02/13 01:35:33;;;;;;;12.30;4.50;;;;;;;-0.82;59.37;102339.32;125527;1099;102037;-84
2023/02/13 01:38:06;;;;;;;10.87;4.43;;;;;;;-0.80;59.18;102334.34;125478;1098;102130;-83
2023/02/13 01:40:44;;;;;;;11.37;4.77;;;;;;;-0.78;59.92;102336.34;125477;1099;101984;-83
2023/02/13 01:43:15;;;;;;;13.90;4.73;;;;;;;-0.76;59.33;102332.27;125614;1099;102044;-82
2023/02/13 01:45:50;;;;;;;12.40;4.27;;;;;;;-0.78;59.76;102326.03;125426;1099;102112;-84
2023/02/13 01:48:25;;;;;;;10.27;4.57;;;;;;;-0.79;59.42;102328.45;125541;1099;101990;-84
2023/02/13 01:50:58;;;;;;;;;;;;;;;-0.81;60.02;102332.48;125010;1099;104238;-84
2023/02/13 01:53:33;;;;;;;12.23;4.43;;;;;;;-0.85;60.11;102328.67;125502;1099;104210;-84
2023/02/13 01:56:13;;;;;;;11.87;4.47;;;;;;;-0.86;60.04;102336.23;125511;1099;104196;-83
2023/02/13 01:58:47;;;;;;;13.77;4.90;;;;;;;-0.89;60.11;102336.80;124965;1099;104166;-82
2023/02/13 02:01:19;;;;;;;12.63;5.37;;;;;;;-0.92;60.21;102328.72;124955;1099;102068;-82
2023/02/13 02:03:56;;;;;;;11.97;4.67;;;;;;;-0.95;60.37;102333.54;124899;1099;104332;-83
2023/02/13 02:06:32;;;;;;;14.10;4.70;;;;;;;-0.98;59.36;102328.05;125467;1099;104248;-83
2023/02/13 02:09:07;;;;;;;13.40;5.10;;;;;;;-1.00;59.95;102326.97;124909;1099;104179;-83
2023/02/13 02:11:43;;;;;;;12.80;4.80;;;;;;;-1.02;60.01;102321.64;125488;1099;104358;-83
2023/02/13 02:14:16;;;;;;;15.00;4.80;;;;;;;-1.02;60.60;102328.47;124968;1099;102324;-83
2023/02/13 02:16:47;;;;;;;14.17;4.23;;;;;;;-1.01;60.56;102325.13;125517;1099;104185;-82
2023/02/13 02:19:29;;;;;;;11.67;4.80;;;;;;;-1.02;59.94;102325.89;125562;1098;101791;-83
2023/02/13 02:22:34;;;;;;;11.87;4.80;;;;;;;-1.01;60.36;102323.48;124885;1099;101850;-84
2023/02/13 02:25:22;;;;;;;;;;;;;;;-1.00;59.99;102314.08;124959;1099;102405;-83
2023/02/13 02:28:11;;;;;;;10.93;4.13;;;;;;;-0.99;60.35;102323.66;124983;1099;102132;-83
2023/02/13 02:31:29;;;;;;;10.40;4.10;;;;;;;-0.98;60.33;102333.20;124924;1099;104172;-84
2023/02/13 02:34:13;;;;;;;11.17;4.23;;;;;;;-0.96;60.40;102324.00;124997;1100;104289;-84
2023/02/13 02:37:02;;;;;;;12.23;4.77;;;;;;;-0.94;60.92;102320.82;124945;1099;102134;-85
2023/02/13 02:39:45;;;;;;;11.13;4.23;;;;;;;-0.92;61.18;102327.09;125000;1099;102405;-84
2023/02/13 02:42:28;;;;;;;14.70;5.10;;;;;;;-0.88;59.94;102319.69;124995;1099;101907;-84
2023/02/13 02:45:08;;;;;;;11.33;4.20;;;;;;;-0.87;60.15;102332.75;125507;1098;101909;-84
2023/02/13 02:50:42;;;;;;;11.05;4.20;;;;;;;-0.81;60.57;102332.48;125072;1099;102438;-84
2023/02/13 02:53:29;;;;;;;10.07;4.33;;;;;;;-0.78;60.78;102333.77;125534;1099;102401;-83
2023/02/13 02:56:07;;;;;;;14.20;5.37;;;;;;;-0.77;60.94;102329.52;125554;1098;104380;-83
2023/02/13 03:07:19;;;;;;;11.35;4.55;;;;;;;-0.77;61.53;102325.27;125565;1098;102041;-82
2023/02/13 03:24:32;;;;;;;12.30;5.23;;;;;;;-0.70;61.58;102318.20;125562;1099;102019;-81
2023/02/13 03:27:09;;;;;;;11.40;5.20;;;;;;;-0.71;61.94;102317.30;125481;1099;101909;-81
2023/02/13 03:30:07;;;;;;;12.03;5.33;;;;;;;-0.73;61.58;102306.82;125481;1099;101916;-83
2023/02/13 03:32:47;;;;;;;13.37;5.30;;;;;;;-0.73;61.73;102299.09;125471;1099;102201;-84
2023/02/13 03:38:30;;;;;;;13.13;5.67;;;;;;;-0.69;61.81;102300.33;125528;1099;104227;-84
2023/02/13 03:41:19;;;;;;;14.90;5.57;;;;;;;-0.69;62.04;102305.48;125490;1099;104284;-84
2023/02/13 03:44:01;;;;;;;12.97;5.20;;;;;;;-0.68;62.11;102296.11;125479;1099;104182;-83
2023/02/13 03:46:37;;;;;;;12.80;5.47;;;;;;;-0.66;62.74;102300.66;125601;1098;104179;-84
2023/02/13 03:52:06;;;;;;;13.53;5.40;;;;;;;-0.63;62.19;102305.25;125495;1099;102014;-84
2023/02/13 04:00:25;;;;;;;15.33;5.53;;;;;;;-0.60;61.76;102283.28;125520;1098;104197;-82
2023/02/13 04:03:04;;;;;;;19.47;6.10;;;;;;;-0.58;61.07;102289.55;125377;1099;101827;-83
2023/02/13 04:05:40;;;;;;;13.87;5.60;;;;;;;-0.56;61.59;102287.14;125557;1099;103618;-82
2023/02/13 04:08:12;;;;;;;15.73;5.90;;;;;;;-0.54;62.16;102285.62;125535;1099;102645;-84
2023/02/13 04:10:50;;;;;;;13.10;5.43;;;;;;;-0.52;62.20;102286.70;125535;1098;104281;-84
2023/02/13 04:13:27;;;;;;;15.50;6.13;;;;;;;-0.51;61.90;102295.34;124961;1099;102132;-83
2023/02/13 04:16:07;;;;;;;14.90;5.70;;;;;;;-0.51;62.02;102290.19;125410;1099;101782;-83
2023/02/13 04:18:39;;;;;;;15.00;5.93;;;;;;;-0.53;61.90;102297.78;125102;1098;102367;-83
2023/02/13 04:21:11;;;;;;;14.90;6.17;;;;;;;-0.55;61.93;102295.04;125266;1099;102006;-84
2023/02/13 04:23:42;;;;;;;15.50;6.20;;;;;;;-0.55;61.49;102299.26;125638;1099;104192;-83
2023/02/13 04:26:17;;;;;;;12.17;5.27;;;;;;;-0.55;61.81;102299.26;125515;1099;104233;-85
2023/02/13 04:28:49;;;;;;;11.47;5.13;;;;;;;-0.57;62.62;102303.34;125552;1099;104172;-82
2023/02/13 04:31:20;;;;;;;13.37;5.37;;;;;;;-0.60;62.39;102303.02;125487;1099;104903;-83
2023/02/13 04:33:51;;;;;;;12.50;5.53;;;;;;;-0.63;62.14;102300.09;125467;1099;104240;-84
2023/02/13 04:36:23;;;;;;;19.23;6.80;;;;;;;-0.68;62.44;102299.59;125586;1099;104217;-83
2023/02/13 04:38:54;;;;;;;14.23;6.03;;;;;;;-0.73;61.65;102304.25;125547;1099;104185;-83
2023/02/13 04:41:25;;;;;;;15.10;5.73;;;;;;;-0.78;62.44;102307.98;125552;1099;101862;-81
2023/02/13 04:43:56;;;;;;;16.80;6.57;;;;;;;-0.84;62.21;102307.31;125675;1098;104172;-86
2023/02/13 04:46:28;;;;;;;14.93;5.67;;;;;;;-0.88;62.47;102315.45;125506;1099;101942;-87
2023/02/13 04:48:59;;;;;;;14.43;6.10;;;;;;;-0.97;62.53;102315.33;125599;1098;102096;-84
2023/02/13 04:51:30;;;;;;;16.10;6.27;;;;;;;-1.01;61.92;102330.28;125592;1098;104172;-86
2023/02/13 04:54:01;;;;;;;16.93;6.10;;;;;;;-1.04;62.41;102329.94;125581;1099;102093;-87
2023/02/13 04:56:32;;;;;;;13.93;5.97;;;;;;;-1.10;61.76;102327.61;124981;1099;102239;-88
2023/02/13 04:59:04;;;;;;;14.43;5.90;;;;;;;-1.17;62.09;102331.17;124916;1099;104211;-85
2023/02/13 05:01:35;;;;;;;17.73;6.90;;;;;;;-1.20;63.07;102333.41;125243;1099;102045;-87
2023/02/13 05:04:06;;;;;;;17.77;7.47;;;;;;;-1.24;62.44;102330.31;125302;1099;104211;-87
2023/02/13 05:06:38;;;;;;;18.20;6.93;;;;;;;-1.26;62.14;102330.14;125510;1098;101933;-85
2023/02/13 05:09:10;;;;;;;17.63;7.70;;;;;;;-1.28;63.19;102326.45;125521;1099;102389;-87
2023/02/13 05:11:41;;;;;;;20.57;7.80;;;;;;;-1.29;62.33;102324.65;125505;1099;104175;-85
2023/02/13 05:14:14;;;;;;;17.23;7.50;;;;;;;-1.31;62.42;102326.11;125566;1099;104124;-85
2023/02/13 05:16:45;;;;;;;17.27;7.50;;;;;;;-1.33;63.20;102325.03;125666;1099;104178;-85
2023/02/13 05:19:17;;;;;;;19.50;8.20;;;;;;;-1.33;62.85;102328.52;125671;1099;102083;-84
2023/02/13 05:24:33;;;;;;;20.97;8.00;;;;;;;-1.36;62.50;102333.32;125319;1099;102117;-80
2023/02/13 05:27:05;;;;;;;20.20;8.53;;;;;;;-1.39;62.82;102330.40;125154;1099;104204;-83
2023/02/13 05:29:36;;;;;;;18.80;7.87;;;;;;;-1.40;62.78;102327.66;125274;1099;104233;-82
2023/02/13 05:32:07;;;;;;;16.83;7.33;;;;;;;-1.42;63.65;102339.45;125349;1099;101846;-82
2023/02/13 05:34:39;;;;;;;15.97;7.10;;;;;;;-1.43;63.02;102333.39;125260;1099;102418;-82
2023/02/13 05:37:10;;;;;;;22.07;8.97;;;;;;;-1.43;62.73;102343.69;124852;1099;101900;-81
2023/02/13 05:39:41;;;;;;;20.13;7.73;;;;;;;-1.45;63.81;102348.67;125268;1099;101991;-80
2023/02/13 05:42:13;;;;;;;17.87;7.73;;;;;;;-1.45;62.86;102346.09;125299;1099;102115;-81
2023/02/13 05:44:44;;;;;;;18.67;7.90;;;;;;;-1.45;63.70;102353.82;125243;1099;102019;-81
2023/02/13 05:47:15;;;;;;;16.87;7.57;;;;;;;-1.44;62.84;102352.16;125172;1098;101881;-81
2023/02/13 05:49:46;;;;;;;20.13;8.00;;;;;;;-1.45;63.23;102352.88;125106;1099;101993;-79
2023/02/13 05:52:18;;;;;;;16.50;7.07;;;;;;;-1.43;63.28;102365.93;125218;1098;103210;-80
2023/02/13 05:54:49;;;;;;;17.17;7.40;;;;;;;-1.46;63.22;102361.38;125384;1099;101859;-80
2023/02/13 05:57:21;;;;;;;20.90;8.60;;;;;;;-1.43;63.29;102363.36;125383;1099;102453;-80
2023/02/13 05:59:52;;;;;;;19.87;8.13;;;;;;;-1.38;63.78;102363.15;125567;1099;102540;-78
2023/02/13 06:02:23;;;;;;;21.70;8.90;;;;;;;-1.31;63.07;102355.38;124928;1099;104204;-78
2023/02/13 06:04:54;;;;;;;21.90;8.77;;;;;;;-1.20;63.50;102351.44;125775;1099;104274;-81
2023/02/13 06:07:26;;;;;;;19.37;8.27;;;;;;;-1.10;63.56;102346.55;124982;1099;103102;-82
2023/02/13 06:09:58;;;;;;;21.27;8.83;;;;;;;-0.99;63.63;102339.12;125555;1098;104168;-79
2023/02/13 06:12:29;;;;;;;19.97;8.67;;;;;;;-0.88;64.01;102342.89;125612;1099;103244;-76
2023/02/13 06:15:01;;;;;;;19.93;8.90;;;;;;;-0.78;63.73;102336.34;125603;1099;104265;-81
2023/02/13 06:17:32;;;;;;;21.80;8.77;;;;;;;-0.66;64.25;102330.70;125517;1099;103502;-77
2023/02/13 06:20:04;;;;;;;20.10;7.53;;;;;;;-0.57;64.19;102344.61;125560;1099;102448;-78
2023/02/13 06:22:35;;;;;;;18.73;7.53;;;;;;;-0.53;64.51;102336.47;125563;1098;104173;-75
2023/02/13 06:25:08;;;;;;;17.63;8.07;;;;;;;-0.46;64.36;102332.89;125565;1099;103724;-78
2023/02/13 06:27:40;;;;;;;19.57;8.03;;;;;;;-0.35;64.28;102344.38;125169;1099;103515;-75
2023/02/13 06:30:14;;;;;;;21.83;8.87;;;;;;;-0.29;64.40;102337.30;124956;1099;104208;-77
2023/02/13 06:32:48;;;;;;;20.10;8.33;;;;;;;-0.24;64.76;102338.71;125606;1099;104204;-75
2023/02/13 06:35:20;;;;;;;20.60;8.33;;;;;;;-0.20;64.92;102340.88;125593;1099;103876;-75
2023/02/13 06:38:13;;;;;;;24.07;9.10;;;;;;;-0.15;64.57;102341.38;125288;1099;102327;-76
2023/02/13 06:40:45;;;;;;;22.73;9.90;;;;;;;-0.12;64.36;102337.45;125549;1099;104153;-76
2023/02/13 06:43:18;;;;;;;21.33;9.37;;;;;;;-0.08;64.25;102341.27;125603;1099;104119;-76
2023/02/13 06:45:50;;;;;;;27.85;10.48;;;;;;;-0.04;64.15;102343.45;125507;1099;102664;-78
2023/02/13 06:48:22;;;;;;;20.60;10.03;;;;;;;-0.02;64.44;102341.93;125000;1099;104172;-78
2023/02/13 06:50:53;;;;;;;20.70;8.80;;;;;;;0.06;63.85;102340.17;125504;1098;104310;-76
2023/02/13 06:53:25;;;;;;;18.57;8.53;;;;;;;0.20;64.25;102339.08;125473;1099;102164;-78
2023/02/13 06:55:57;;;;;;;19.53;9.43;;;;;;;0.30;64.18;102335.05;125532;1099;104234;-78
2023/02/13 06:58:29;;;;;;;23.13;9.43;;;;;;;0.44;64.07;102335.61;125487;1098;104192;-78
2023/02/13 07:01:00;;;;;;;20.25;9.75;;;;;;;0.57;64.50;102338.72;124877;1099;102562;-77
2023/02/13 07:03:31;;;;;;;22.80;9.97;;;;;;;0.74;64.44;102331.83;124881;1099;104213;-75
2023/02/13 07:06:03;;;;;;;22.15;9.60;;;;;;;0.88;64.22;102323.83;125455;1099;104140;-77
2023/02/13 07:08:35;;;;;;;19.27;9.37;;;;;;;0.99;64.33;102318.09;125464;1099;104657;-75
2023/02/13 07:11:07;;;;;;;18.23;7.97;;;;;;;1.07;64.03;102321.47;125741;1099;102987;-77
2023/02/13 07:13:38;;;;;;;20.57;9.23;;;;;;;1.12;64.14;102316.77;125071;1099;102404;-78
2023/02/13 07:16:10;;;;;;;20.07;8.73;;;;;;;1.14;64.53;102312.66;125405;1099;103437;-78
2023/02/13 07:18:45;;;;;;;22.30;9.10;;;;;;;1.12;63.54;102312.50;125542;1099;104003;-78
2023/02/13 07:21:17;;;;;;;20.53;8.50;;;;;;;1.11;63.94;102317.52;125335;1099;102550;-82
2023/02/13 07:23:49;;;;;;;22.17;9.20;;;;;;;1.14;63.69;102317.83;125087;1099;104102;-78
2023/02/13 07:26:22;;;;;;;24.80;10.40;;;;;;;1.16;64.08;102303.41;125612;1099;102156;-77
2023/02/13 07:28:54;;;;;;;19.53;9.70;;;;;;;1.21;64.04;102303.09;125686;1099;104185;-78
2023/02/13 07:31:26;;;;;;;23.43;9.97;;;;;;;1.24;64.43;102306.00;125558;1099;103901;-78
2023/02/13 07:33:59;;;;;;;23.40;10.60;;;;;;;1.29;64.11;102298.71;125209;1099;103834;-78
2023/02/13 07:36:31;;;;;;;24.63;10.60;;;;;;;1.37;63.96;102300.42;125580;1099;103574;-78
2023/02/13 07:39:04;;;;;;;38.57;15.03;;;;;;;1.48;64.65;102298.92;125430;1099;102624;-78
2023/02/13 07:41:35;;;;;;;25.00;11.07;;;;;;;1.62;63.82;102302.88;125833;1099;104210;-77
2023/02/13 07:44:06;;;;;;;24.43;10.33;;;;;;;1.67;63.56;102295.57;125747;1099;103111;-78
2023/02/13 07:46:39;;;;;;;22.37;10.07;;;;;;;1.77;63.84;102295.74;125651;1098;103790;-78
2023/02/13 07:49:10;;;;;;;21.93;10.10;;;;;;;1.84;64.24;102287.84;125551;1098;104249;-81
2023/02/13 07:51:42;;;;;;;25.63;10.67;;;;;;;1.87;64.04;102284.63;125619;1099;103310;-76
2023/02/13 07:54:13;;;;;;;29.10;11.43;;;;;;;1.90;64.00;102279.75;125572;1099;102835;-77
2023/02/13 07:56:45;;;;;;;40.87;12.17;;;;;;;2.02;64.39;102283.55;125617;1099;102683;-77
2023/02/13 07:59:18;;;;;;;29.70;10.90;;;;;;;2.06;63.60;102280.51;125188;1099;102125;-79
2023/02/13 08:01:50;;;;;;;28.60;12.03;;;;;;;2.08;63.55;102272.89;125859;1099;104192;-78
2023/02/13 08:04:24;;;;;;;95.40;21.67;;;;;;;2.14;63.89;102276.98;125723;1099;102859;-78
2023/02/13 08:06:56;;;;;;;24.13;10.07;;;;;;;2.20;63.65;102286.11;125742;1099;104826;-77
2023/02/13 08:12:17;;;;;;;22.10;10.20;;;;;;;2.25;63.30;102284.91;126015;1099;104048;-78
2023/02/13 08:14:49;;;;;;;24.47;10.43;;;;;;;2.30;63.91;102273.30;125477;1099;103543;-77
2023/02/13 08:17:23;;;;;;;24.50;9.43;;;;;;;2.40;63.36;102272.51;125911;1099;102329;-79
2023/02/13 08:20:01;;;;;;;22.67;10.10;;;;;;;2.46;62.49;102275.70;125410;1099;104299;-81
2023/02/13 08:22:32;;;;;;;23.45;9.58;;;;;;;2.49;63.23;102269.16;125605;1099;102366;-78
2023/02/13 08:25:04;;;;;;;22.87;9.70;;;;;;;2.54;62.43;102273.84;125151;1099;102994;-76
2023/02/13 08:27:36;;;;;;;22.43;10.07;;;;;;;2.58;63.08;102270.80;125134;1099;103510;-76
2023/02/13 08:30:10;;;;;;;21.53;9.80;;;;;;;2.61;62.30;102271.09;125730;1099;103211;-78
2023/02/13 08:32:42;;;;;;;21.17;9.70;;;;;;;2.62;62.61;102275.52;125148;1099;103056;-76
2023/02/13 08:35:14;;;;;;;21.13;10.07;;;;;;;2.67;63.03;102261.31;125549;1098;104278;-76
2023/02/13 08:37:46;;;;;;;21.43;10.50;;;;;;;2.77;62.93;102257.91;125056;1099;104237;-76
2023/02/13 08:40:19;;;;;;;23.73;10.30;;;;;;;2.88;63.11;102271.14;125608;1099;104133;-77
2023/02/13 08:42:51;;;;;;;24.77;10.07;;;;;;;2.94;62.83;102254.33;125518;1099;103467;-76
2023/02/13 08:45:23;;;;;;;25.97;10.67;;;;;;;2.99;62.58;102250.47;125202;1099;103407;-78
2023/02/13 08:47:57;;;;;;;21.03;9.70;;;;;;;3.12;62.48;102258.65;125698;1098;103412;-77
2023/02/13 08:50:28;;;;;;;;;;;;;;;3.16;61.94;102254.65;125761;1099;102166;-75
2023/02/13 08:53:08;;;;;;;20.57;8.53;;;;;;;3.17;62.47;102246.11;125748;1099;103110;-77
2023/02/13 08:55:43;;;;;;;22.80;9.63;;;;;;;3.22;62.45;102247.44;125828;1099;102363;-78
2023/02/13 08:58:19;;;;;;;23.07;9.93;;;;;;;3.25;61.39;102239.94;125806;1099;102021;-79
2023/02/13 09:00:51;;;;;;;21.60;9.70;;;;;;;3.33;62.07;102244.16;125716;1099;103149;-79
2023/02/13 09:03:30;;;;;;;22.33;10.13;;;;;;;3.31;61.34;102243.11;125569;1099;102349;-77
2023/02/13 09:06:04;;;;;;;24.50;10.27;;;;;;;3.36;61.61;102239.25;125567;1099;104261;-78
2023/02/13 09:08:36;;;;;;;21.03;10.03;;;;;;;3.45;61.18;102230.51;125269;1099;104184;-78
2023/02/13 09:11:11;;;;;;;28.30;10.63;;;;;;;3.54;61.41;102231.36;125540;1099;102675;-78
2023/02/13 09:13:43;;;;;;;22.47;9.93;;;;;;;3.51;61.06;102231.98;125504;1099;104226;-78
2023/02/13 09:16:17;;;;;;;21.77;9.67;;;;;;;3.51;60.58;102221.59;125438;1099;103916;-82
2023/02/13 09:18:51;;;;;;;20.52;9.45;;;;;;;3.63;61.70;102223.48;125098;1099;103175;-78
2023/02/13 09:21:30;;;;;;;21.27;9.53;;;;;;;3.79;60.69;102216.32;125606;1099;102798;-79
2023/02/13 09:24:07;;;;;;;21.27;9.13;;;;;;;3.81;59.56;102211.27;125658;1098;102830;-76
2023/02/13 09:26:39;;;;;;;;;;;;;;;3.77;58.90;102205.80;125511;1099;102521;-78
2023/02/13 09:29:11;;;;;;;20.87;9.53;;;;;;;3.76;59.49;102196.17;125127;1099;104326;-77
2023/02/13 09:31:43;;;;;;;20.87;8.67;;;;;;;3.75;59.13;102203.82;125492;1098;103033;-77
2023/02/13 09:34:17;;;;;;;21.57;10.20;;;;;;;3.68;58.96;102198.88;125071;1099;102951;-77
2023/02/13 09:36:54;;;;;;;20.68;9.78;;;;;;;3.59;59.19;102198.94;125041;1099;104308;-75
2023/02/13 09:39:25;;;;;;;23.00;10.70;;;;;;;3.57;58.87;102200.48;125109;1099;104210;-78
2023/02/13 09:42:01;;;;;;;21.67;10.17;;;;;;;3.63;58.81;102190.66;125553;1099;102597;-77
2023/02/13 09:44:42;;;;;;;20.70;9.07;;;;;;;3.73;58.62;102187.20;125511;1099;104216;-77
2023/02/13 09:47:19;;;;;;;21.87;9.50;;;;;;;3.76;58.07;102193.58;125007;1099;104338;-76
2023/02/13 09:49:54;;;;;;;20.83;9.17;;;;;;;3.78;59.21;102178.13;125279;1099;104317;-76
2023/02/13 09:52:28;;;;;;;24.43;9.47;;;;;;;3.89;58.69;102187.78;125572;1099;104162;-77
2023/02/13 09:55:01;;;;;;;;;;;;;;;3.91;57.68;102170.68;125680;1099;104223;-77
2023/02/13 09:57:36;;;;;;;19.50;8.77;;;;;;;3.90;58.27;102167.95;125565;1098;103772;-78
2023/02/13 10:00:18;;;;;;;23.10;10.20;;;;;;;3.90;57.73;102160.16;125258;1099;103266;-76
2023/02/13 10:03:18;;;;;;;20.90;9.40;;;;;;;3.95;57.91;102157.17;125242;1099;103490;-76
2023/02/13 10:06:00;;;;;;;22.40;9.43;;;;;;;4.02;58.09;102149.92;125594;1099;103889;-79
2023/02/13 10:08:57;;;;;;;20.30;9.67;;;;;;;4.09;58.33;102137.61;125769;1099;104102;-76
2023/02/13 10:12:00;;;;;;;21.47;8.93;;;;;;;4.20;57.95;102142.84;125652;1099;103477;-77
2023/02/13 10:14:33;;;;;;;;;;;;;;;4.20;56.35;102145.45;125194;1099;102758;-78
2023/02/13 10:17:12;;;;;;;19.60;8.43;;;;;;;4.26;57.05;102146.89;125648;1099;104250;-74
2023/02/13 10:19:48;;;;;;;17.43;8.07;;;;;;;4.29;56.69;102141.95;125685;1099;104256;-77
2023/02/13 10:22:27;;;;;;;21.13;9.07;;;;;;;4.31;55.86;102134.30;125480;1099;102371;-76
2023/02/13 10:25:06;;;;;;;23.60;8.87;;;;;;;4.38;56.46;102127.93;125170;1098;104268;-78
2023/02/13 10:27:44;;;;;;;19.17;8.07;;;;;;;4.39;55.90;102129.77;125197;1099;103210;-78
2023/02/13 10:30:21;;;;;;;21.17;8.70;;;;;;;4.41;56.01;102128.20;125861;1099;103877;-79
2023/02/13 10:33:19;;;;;;;18.40;8.27;;;;;;;4.45;55.89;102127.70;125795;1099;104251;-80
2023/02/13 10:36:08;;;;;;;20.17;8.00;;;;;;;4.46;54.91;102119.13;125743;1099;104220;-77
2023/02/13 10:38:56;;;;;;;21.77;8.63;;;;;;;4.54;55.48;102117.19;125754;1099;104159;-79
2023/02/13 10:41:41;;;;;;;19.50;7.90;;;;;;;4.63;56.22;102111.08;125184;1099;103217;-77
2023/02/13 10:44:47;;;;;;;18.53;7.80;;;;;;;4.80;56.16;102103.78;125684;1099;117974;-79
2023/02/13 10:47:45;;;;;;;19.60;7.93;;;;;;;4.83;54.13;102104.05;125639;1098;103631;-80
2023/02/13 10:50:47;;;;;;;16.30;7.17;;;;;;;4.83;54.52;102093.64;125734;1101;102349;-77
2023/02/13 10:53:27;;;;;;;14.47;7.47;;;;;;;4.90;54.24;102079.48;125224;1099;103028;-78
2023/02/13 10:56:25;;;;;;;18.10;7.97;;;;;;;4.98;51.52;102091.42;125591;1099;104175;-77
2023/02/13 10:59:30;;;;;;;17.40;7.80;;;;;;;4.99;53.88;102083.75;125651;1099;104271;-77
2023/02/13 11:02:21;;;;;;;19.00;7.73;;;;;;;4.99;53.71;102075.95;125575;1099;103011;-78
2023/02/13 11:04:57;;;;;;;16.03;6.80;;;;;;;5.08;53.75;102075.81;125631;1099;104191;-77
2023/02/13 11:07:34;;;;;;;16.27;7.67;;;;;;;5.12;53.60;102062.25;125694;1099;102892;-77
2023/02/13 11:10:18;;;;;;;18.45;8.00;;;;;;;5.19;52.20;102061.09;125867;1099;102670;-76
2023/02/13 11:12:50;;;;;;;16.37;7.12;;;;;;;5.22;52.47;102075.25;125857;1099;102867;-77
2023/02/13 11:15:29;;;;;;;16.43;7.30;;;;;;;5.14;51.85;102059.77;125785;1099;107117;-79
2023/02/13 11:18:24;;;;;;;17.77;7.63;;;;;;;5.08;51.63;102065.41;126011;1099;102452;-77
2023/02/13 11:21:07;;;;;;;19.73;7.97;;;;;;;5.04;52.12;102053.81;126001;1099;102315;-77
2023/02/13 11:23:46;;;;;;;19.65;8.25;;;;;;;5.07;52.15;102049.67;125856;1099;102520;-79
2023/02/13 11:26:28;;;;;;;17.07;8.03;;;;;;;5.08;52.37;102043.66;125755;1099;102531;-78
2023/02/13 11:29:09;;;;;;;19.53;8.47;;;;;;;5.08;52.18;102034.19;125699;1099;102799;-77
2023/02/13 11:31:40;;;;;;;17.17;8.33;;;;;;;5.13;51.77;102039.77;125811;1099;102348;-78
2023/02/13 11:34:28;;;;;;;18.13;7.97;;;;;;;5.12;51.71;102037.94;125683;1099;102888;-78
2023/02/13 11:37:18;;;;;;;21.07;8.47;;;;;;;5.14;52.45;102025.95;125679;1099;103453;-76
2023/02/13 11:39:53;;;;;;;18.93;8.20;;;;;;;5.13;51.68;102031.95;125720;1099;102875;-75
2023/02/13 11:42:45;;;;;;;20.43;8.40;;;;;;;5.13;51.34;102026.75;125755;1099;104239;-76
2023/02/13 11:45:29;;;;;;;17.87;7.87;;;;;;;5.11;51.00;102017.89;125592;1099;103794;-77
2023/02/13 11:48:09;;;;;;;20.10;8.27;;;;;;;5.11;51.68;102012.69;125361;1099;103676;-76
2023/02/13 11:50:43;;;;;;;18.17;8.00;;;;;;;5.19;51.98;102014.25;125493;1099;104201;-76
2023/02/13 11:53:20;;;;;;;;;;;;;;;5.28;50.43;102007.16;125605;1096;102903;-77
2023/02/13 11:56:06;;;;;;;18.33;8.50;;;;;;;5.37;51.53;102000.09;125548;1096;104199;-76
2023/02/13 11:58:38;;;;;;;19.63;8.33;;;;;;;5.44;51.16;102004.13;125832;1096;102243;-77
2023/02/13 12:01:25;;;;;;;19.40;7.90;;;;;;;5.44;50.84;101995.38;125867;1096;102298;-76
2023/02/13 12:04:06;;;;;;;17.63;7.97;;;;;;;5.47;50.67;101977.40;125846;1096;102772;-78
2023/02/13 12:06:41;;;;;;;17.85;7.90;;;;;;;5.51;50.80;101989.89;125650;1096;117945;-77
2023/02/13 12:09:17;;;;;;;18.50;8.07;;;;;;;5.54;50.08;101990.13;125604;1096;104422;-78
2023/02/13 12:11:52;;;;;;;21.90;8.90;;;;;;;5.49;50.14;101992.37;125655;1097;103849;-78
2023/02/13 12:14:31;;;;;;;18.40;8.03;;;;;;;5.50;50.36;101983.78;125671;1096;104201;-78
2023/02/13 12:17:15;;;;;;;22.37;9.40;;;;;;;5.49;51.39;101976.75;125831;1096;102397;-81
2023/02/13 12:20:01;;;;;;;20.63;8.67;;;;;;;5.54;51.53;101961.49;126596;1096;102541;-78
2023/02/13 12:22:44;;;;;;;21.87;9.10;;;;;;;5.55;51.29;101974.63;126559;1096;102267;-78
2023/02/13 12:25:38;;;;;;;21.73;8.90;;;;;;;5.56;52.08;101966.05;125630;1099;104192;-78
2023/02/13 12:28:17;;;;;;;21.17;8.95;;;;;;;5.61;51.98;101960.27;125765;1096;102786;-78
2023/02/13 12:31:34;;;;;;;22.60;9.00;;;;;;;5.65;52.12;101957.13;125671;1099;102615;-78